Sumifukumaru No.5 — JD3058 — position and weather

sailwx.info

Track history (hours):
 
Tides and Currents Weather Stations Pressure Air Temp Water Temp Dewpoint Dewpoint Depression Visibility Wind Speed Wind Dir Waves Ship Positions

Sumifukumaru No.5

Last reported at 2015-Feb-21 00:30 UTC. Time now 2015-Feb-28 02:05 UTC.
Position N 34°57' E 139°44'.

Length 75 m; draft 4.4 m.

Type: Cargo ship. MMSI: 431001371.

Date/timePositionNaut miles runAvg speedWind from/ knotsBaromVisibWave heightAir tempDewpointWater temp
2015-Feb-21 00:30N 34°57' E 139°44'1111.9
2015-Feb-20 23:33N 35°08' E 139°45'1111.3
2015-Feb-20 22:33N 35°19' E 139°43'8 7.6
2015-Feb-20 21:30N 35°24' E 139°51'0 0.1
2015-Feb-20 20:29N 35°24' E 139°51'0 0.0
2015-Feb-20 19:29N 35°24' E 139°51'0 0.0
2015-Feb-20 18:26N 35°24' E 139°51'0 0.0
2015-Feb-20 17:29N 35°24' E 139°51'0 0.0
2015-Feb-20 16:32N 35°24' E 139°51'0 0.0
2015-Feb-20 15:32N 35°24' E 139°51'0 0.0
2015-Feb-20 14:32N 35°24' E 139°51'0 0.0
2015-Feb-20 13:32N 35°24' E 139°51'0 0.0
2015-Feb-20 12:32N 35°24' E 139°51'0 0.0
2015-Feb-20 11:32N 35°24' E 139°51'0 0.0
2015-Feb-20 10:26N 35°24' E 139°51'0 0.0
2015-Feb-20 09:29N 35°24' E 139°51'0 0.0
2015-Feb-20 08:32N 35°24' E 139°51'0 0.0
2015-Feb-20 07:29N 35°24' E 139°51'0 0.0
2015-Feb-20 01:23N 35°24' E 139°51'0 0.0
2015-Feb-19 22:29N 35°24' E 139°51'0 0.0
2015-Feb-19 21:32N 35°24' E 139°51'0 0.0
2015-Feb-19 20:32N 35°24' E 139°51'0 0.0
2015-Feb-19 19:20N 35°24' E 139°51'0 0.0
2015-Feb-19 16:23N 35°24' E 139°51'0 0.0
2015-Feb-19 14:32N 35°24' E 139°51'0 0.0
2015-Feb-19 12:23N 35°24' E 139°51'0 0.0
2015-Feb-19 10:08N 35°24' E 139°51'0 0.0
2015-Feb-19 09:32N 35°24' E 139°51'0 0.0
2015-Feb-19 08:32N 35°24' E 139°51'0 0.0
2015-Feb-19 06:29N 35°24' E 139°51'0 0.0
2015-Feb-18 23:07N 35°24' E 139°51'0 0.0
2015-Feb-18 22:33N 35°24' E 139°51'0 0.0
2015-Feb-18 21:27N 35°24' E 139°51'0 0.0
2015-Feb-18 20:33N 35°24' E 139°51'0 0.0
2015-Feb-18 18:15N 35°24' E 139°51'0 0.0
2015-Feb-18 14:09N 35°24' E 139°51'0 0.0
2015-Feb-17 23:30N 35°24' E 139°51'0 0.0
2015-Feb-17 22:05N 35°24' E 139°51'3 6.2
2015-Feb-17 21:32N 35°22' E 139°53'0 0.0
2015-Feb-17 19:26N 35°22' E 139°53'0 0.0
2015-Feb-17 17:32N 35°22' E 139°53'0 0.0
2015-Feb-17 16:20N 35°22' E 139°53'0 0.0
2015-Feb-17 09:09N 35°22' E 139°53'3 5.0
2015-Feb-17 08:33N 35°23' E 139°50'0 0.0
2015-Feb-17 07:32N 35°23' E 139°50'0 0.0
2015-Feb-17 06:32N 35°23' E 139°50'0 0.0
2015-Feb-17 05:32N 35°23' E 139°50'3 2.9
2015-Feb-17 04:31N 35°26' E 139°50'13 1.2
2015-Feb-16 17:27N 35°38' E 139°59'1112.2
2015-Feb-16 16:33N 35°29' E 139°52'1211.6
2015-Feb-16 15:33N 35°19' E 139°44'1111.4
2015-Feb-16 14:33N 35°07' E 139°45'  
Track history (hours):
 
Tides and Currents Weather Stations Pressure Air Temp Water Temp Dewpoint Dewpoint Depression Visibility Wind Speed Wind Dir Waves Ship Positions

Sumifukumaru No.5

Last reported at 2015-Feb-21 00:30 UTC. Time now 2015-Feb-28 02:05 UTC.
Position N 34°57' E 139°44'.

Length 75 m; draft 4.4 m.

Type: Cargo ship. MMSI: 431001371.

Date/timePositionNaut miles runAvg speedWind from/ knotsBaromVisibWave heightAir tempDewpointWater temp
2015-Feb-21 00:30N 34°57' E 139°44'1111.9
2015-Feb-20 23:33N 35°08' E 139°45'1111.3
2015-Feb-20 22:33N 35°19' E 139°43'8 7.6
2015-Feb-20 21:30N 35°24' E 139°51'0 0.1
2015-Feb-20 20:29N 35°24' E 139°51'0 0.0
2015-Feb-20 19:29N 35°24' E 139°51'0 0.0
2015-Feb-20 18:26N 35°24' E 139°51'0 0.0
2015-Feb-20 17:29N 35°24' E 139°51'0 0.0
2015-Feb-20 16:32N 35°24' E 139°51'0 0.0
2015-Feb-20 15:32N 35°24' E 139°51'0 0.0
2015-Feb-20 14:32N 35°24' E 139°51'0 0.0
2015-Feb-20 13:32N 35°24' E 139°51'0 0.0
2015-Feb-20 12:32N 35°24' E 139°51'0 0.0
2015-Feb-20 11:32N 35°24' E 139°51'0 0.0
2015-Feb-20 10:26N 35°24' E 139°51'0 0.0
2015-Feb-20 09:29N 35°24' E 139°51'0 0.0
2015-Feb-20 08:32N 35°24' E 139°51'0 0.0
2015-Feb-20 07:29N 35°24' E 139°51'0 0.0
2015-Feb-20 01:23N 35°24' E 139°51'0 0.0
2015-Feb-19 22:29N 35°24' E 139°51'0 0.0
2015-Feb-19 21:32N 35°24' E 139°51'0 0.0
2015-Feb-19 20:32N 35°24' E 139°51'0 0.0
2015-Feb-19 19:20N 35°24' E 139°51'0 0.0
2015-Feb-19 16:23N 35°24' E 139°51'0 0.0
2015-Feb-19 14:32N 35°24' E 139°51'0 0.0
2015-Feb-19 12:23N 35°24' E 139°51'0 0.0
2015-Feb-19 10:08N 35°24' E 139°51'0 0.0
2015-Feb-19 09:32N 35°24' E 139°51'0 0.0
2015-Feb-19 08:32N 35°24' E 139°51'0 0.0
2015-Feb-19 06:29N 35°24' E 139°51'0 0.0
2015-Feb-18 23:07N 35°24' E 139°51'0 0.0
2015-Feb-18 22:33N 35°24' E 139°51'0 0.0
2015-Feb-18 21:27N 35°24' E 139°51'0 0.0
2015-Feb-18 20:33N 35°24' E 139°51'0 0.0
2015-Feb-18 18:15N 35°24' E 139°51'0 0.0
2015-Feb-18 14:09N 35°24' E 139°51'0 0.0
2015-Feb-17 23:30N 35°24' E 139°51'0 0.0
2015-Feb-17 22:05N 35°24' E 139°51'3 6.2
2015-Feb-17 21:32N 35°22' E 139°53'0 0.0
2015-Feb-17 19:26N 35°22' E 139°53'0 0.0
2015-Feb-17 17:32N 35°22' E 139°53'0 0.0
2015-Feb-17 16:20N 35°22' E 139°53'0 0.0
2015-Feb-17 09:09N 35°22' E 139°53'3 5.0
2015-Feb-17 08:33N 35°23' E 139°50'0 0.0
2015-Feb-17 07:32N 35°23' E 139°50'0 0.0
2015-Feb-17 06:32N 35°23' E 139°50'0 0.0
2015-Feb-17 05:32N 35°23' E 139°50'3 2.9
2015-Feb-17 04:31N 35°26' E 139°50'13 1.2
2015-Feb-16 17:27N 35°38' E 139°59'1112.2
2015-Feb-16 16:33N 35°29' E 139°52'1211.6
2015-Feb-16 15:33N 35°19' E 139°44'1111.4
2015-Feb-16 14:33N 35°07' E 139°45'  

Dump ship's entire track history